Thunder radar more information blitzortung!


avis per Pluja more information rain snow radar


Visita la nostra xarxa de llocs de meteo:

Template documentation
and downloads

And another site



Rain From: 15-11-2018 14:00 Until: 23:59 warning for: Rain Level: Orange info button

Pagina Historial Weather Underground text

Diari Resum January 2, 2018 Unitats:  Mètric    Imperial   Tant
« Previous Dia
SegĂźent Dia »
Diari Setmana Mensual Anual Personalitzada
  Maxima: Minima: Media:
Temperatura: -17.8 °C -13.4 °C -10.3 °C
Punt de rosada: -17.8 °C -17.4 °C -14.7 °C
Humitat: Humidity % 52 % 59 %
Wind Speed: 0 km/h 0 km/h 10.5 km/h
RĂ fegues de vent: 0 km/h - -
Vent:- - SW
Pression baro: 0 hPa 34567.7 hPa -
Precipitacions: 0 mm    
Historical Graphs
 
 
Dades de taula per January 2, 2018
Temps Temperatura Punt de rosada Pression baro Vent Wind Speed RĂ fegues de vent Humitat Rainfall Rate (Hourly)
-17.8 °C -17.8 °C 0 hPa Calm     Humidity % 0 mm
00:02 -11.7 °C -16.4 °C 34567.7 hPa WNW 32.8 km/h 32.8 km/h 56 % 0 mm
00:04 -11.7 °C -16.4 °C 34567.7 hPa WNW 20.9 km/h 20.9 km/h 56 % 0 mm
00:05 -12.9 °C -17.2 °C 34601.5 hPa West 7.7 km/h 10.3 km/h 59 % 0 mm
00:15 -13 °C -17.2 °C 34601.5 hPa West 12.9 km/h 12.9 km/h 59 % 0 mm
00:25 -13.1 °C -17.3 °C 34601.5 hPa West 7.7 km/h 10.3 km/h 59 % 0 mm
00:45 -13.1 °C -17.3 °C 34601.5 hPa WSW 5.1 km/h 12.9 km/h 59 % 0 mm
00:55 -13.1 °C -17.3 °C 34601.5 hPa West 5.1 km/h 10.3 km/h 59 % 0 mm
01:05 -13.4 °C -17.4 °C 34635.4 hPa WSW 5.1 km/h 5.1 km/h 60 % 0 mm
01:25 -13.2 °C -17.3 °C 34635.4 hPa WSW 2.6 km/h 7.7 km/h 60 % 0 mm
01:45 -13.3 °C -17.3 °C 34635.4 hPa WNW 2.6 km/h 5.1 km/h 60 % 0 mm
02:25 -13.2 °C -17.2 °C 34669.3 hPa WSW 2.6 km/h 7.7 km/h 60 % 0 mm
02:35 -13.1 °C -17 °C 34669.3 hPa WSW 7.7 km/h 12.9 km/h 61 % 0 mm
02:45 -13.1 °C -17 °C 34669.3 hPa WSW 5.1 km/h 10.3 km/h 61 % 0 mm
03:05 -12.8 °C -16.8 °C 34669.3 hPa WSW 5.1 km/h 15.6 km/h 61 % 0 mm
03:15 -12.7 °C -16.6 °C 34669.3 hPa WSW 5.1 km/h 12.9 km/h 61 % 0 mm
03:25 -12.4 °C -16.4 °C 34669.3 hPa WSW 5.1 km/h 7.7 km/h 61 % 0 mm
03:35 -12.2 °C -16.2 °C 34669.3 hPa SW 7.7 km/h 7.7 km/h 61 % 0 mm
03:55 -12.3 °C -16.3 °C 34635.4 hPa Calm   7.7 km/h 61 % 0 mm
04:05 -12.2 °C -16.2 °C 34669.3 hPa Calm   5.1 km/h 61 % 0 mm
04:15 -12.2 °C -16.2 °C 34669.3 hPa West 5.1 km/h 7.7 km/h 61 % 0 mm
04:35 -12.1 °C -16.3 °C 34669.3 hPa NW 7.7 km/h 10.3 km/h 59 % 0 mm
10:39 -12.1 °C -16.4 °C 34703.1 hPa NNE 11.9 km/h 11.9 km/h 58 % 0 mm
10:41 -12.1 °C -16.4 °C 34703.1 hPa ENE 11.9 km/h 11.9 km/h 58 % 0 mm
10:46 -12.1 °C -16.4 °C 34703.1 hPa NNE 6 km/h 6 km/h 58 % 0 mm
10:47 -12.1 °C -16.4 °C 34703.1 hPa WNW 9 km/h 9 km/h 58 % 0 mm
10:52 -12.2 °C -16.6 °C 34703.1 hPa ENE 9 km/h 9 km/h 58 % 0 mm
10:57 -12.3 °C -16.7 °C 34703.1 hPa North 11.9 km/h 11.9 km/h 58 % 0 mm
11:02 -12.3 °C -16.7 °C 34703.1 hPa NE 6.3 km/h 6.3 km/h 58 % 0 mm
11:05 -12.2 °C -16.6 °C 34703.1 hPa ENE 9 km/h 9 km/h 58 % 0 mm
11:08 -12.2 °C -16.6 °C 34703.1 hPa ENE 6 km/h 6.3 km/h 58 % 0 mm
11:13 -12.1 °C -16.5 °C 34703.1 hPa SE 6.3 km/h 6.3 km/h 58 % 0 mm
11:14 -12.1 °C -16.5 °C 34703.1 hPa ESE 6 km/h 6 km/h 58 % 0 mm
11:19 -12.1 °C -16.6 °C 34703.1 hPa NNE 9 km/h 9 km/h 57 % 0 mm
11:20 -12.1 °C -16.6 °C 34703.1 hPa NE 6.8 km/h 6.8 km/h 57 % 0 mm
11:28 -12.2 °C -16.7 °C 34669.3 hPa East 6 km/h 6 km/h 57 % 0 mm
11:31 -12.2 °C -16.7 °C 34669.3 hPa ENE 9 km/h 9 km/h 57 % 0 mm
11:36 -12.2 °C -16.7 °C 34669.3 hPa NE 11.9 km/h 11.9 km/h 57 % 0 mm
11:41 -12.2 °C -16.7 °C 34669.3 hPa ENE 15 km/h 15 km/h 57 % 0 mm
11:46 -12.1 °C -16.8 °C 34669.3 hPa NNE 15.3 km/h 15.3 km/h 56 % 0 mm
11:47 -12.2 °C -16.8 °C 34669.3 hPa ENE 17.9 km/h 17.9 km/h 56 % 0 mm
11:49 -12.1 °C -16.8 °C 34669.3 hPa NNE 15 km/h 15 km/h 56 % 0 mm
11:52 -11.9 °C -16.6 °C 34669.3 hPa NW 9 km/h 9 km/h 56 % 0 mm
11:58 -11.7 °C -16.4 °C 34669.3 hPa North 17.9 km/h 17.9 km/h 56 % 0 mm
12:07 -11.4 °C -16.2 °C 34669.3 hPa NNE 9 km/h 9 km/h 56 % 0 mm
12:10 -11.3 °C -16.1 °C 34669.3 hPa ENE 16.1 km/h 16.1 km/h 56 % 0 mm
12:15 -11.1 °C -15.8 °C 34669.3 hPa West 11.9 km/h 11.9 km/h 56 % 0 mm
12:16 -11.1 °C -15.8 °C 34669.3 hPa NNW 9 km/h 9 km/h 56 % 0 mm
12:20 -11.1 °C -15.8 °C 34669.3 hPa WNW 11.9 km/h 11.9 km/h 56 % 0 mm
12:21 -11.1 °C -15.8 °C 34669.3 hPa ESE 6 km/h 6 km/h 56 % 0 mm
12:24 -10.8 °C -15.5 °C 34669.3 hPa NNE 6.8 km/h 6.8 km/h 56 % 0 mm
12:27 -10.8 °C -15.6 °C 34669.3 hPa NNE 15 km/h 15 km/h 56 % 0 mm
12:31 -10.4 °C -15.1 °C 34669.3 hPa NNE 11.9 km/h 11.9 km/h 57 % 0 mm
12:32 -10.4 °C -15.2 °C 34669.3 hPa East 11.9 km/h 11.9 km/h 56 % 0 mm
12:38 -10.3 °C -15.1 °C 34669.3 hPa NNW 11.9 km/h 11.9 km/h 56 % 0 mm
12:43 -10 °C -14.8 °C 34669.3 hPa NNW 15 km/h 15 km/h 56 % 0 mm
12:46 -9.7 °C -14.4 °C 34669.3 hPa NW 9 km/h 9 km/h 57 % 0 mm
12:48 -9.7 °C -14.3 °C 34669.3 hPa West 15.6 km/h 15.6 km/h 57 % 0 mm
12:53 -9.6 °C -14.4 °C 34669.3 hPa West 11.9 km/h 11.9 km/h 56 % 0 mm
13:00 -9.4 °C -14.3 °C 34669.3 hPa West 12.7 km/h 12.7 km/h 56 % 0 mm
13:05 -9.3 °C -14.3 °C 34669.3 hPa WNW 33.2 km/h 33.2 km/h 55 % 0 mm
13:10 -9.4 °C -14.4 °C 34669.3 hPa WNW 20.9 km/h 20.9 km/h 55 % 0 mm
13:11 -9.4 °C -14.4 °C 34669.3 hPa North 16.1 km/h 16.1 km/h 55 % 0 mm
13:16 -9.3 °C -14.3 °C 34669.3 hPa WSW 9 km/h 11.1 km/h 55 % 0 mm
13:17 -9.3 °C -14.3 °C 34669.3 hPa West 11.9 km/h 11.9 km/h 55 % 0 mm
13:19 -9.2 °C -14.2 °C 34669.3 hPa NW 15.3 km/h 15.3 km/h 55 % 0 mm
13:23 -9.2 °C -14.4 °C 34669.3 hPa WSW 20.9 km/h 20.9 km/h 54 % 0 mm
13:28 -9.2 °C -14.3 °C 34669.3 hPa West 11.9 km/h 11.9 km/h 54 % 0 mm
13:33 -8.9 °C -14.1 °C 34669.3 hPa NNW 17.9 km/h 17.9 km/h 54 % 0 mm
13:38 -9 °C -14.2 °C 34635.4 hPa WNW 17.9 km/h 17.9 km/h 54 % 0 mm
13:40 -9 °C -14.2 °C 34635.4 hPa WNW 15.3 km/h 15.3 km/h 54 % 0 mm
13:43 -9.1 °C -14.2 °C 34635.4 hPa West 20.9 km/h 20.9 km/h 54 % 0 mm
13:46 -9 °C -14.2 °C 34635.4 hPa WNW 15 km/h 15 km/h 54 % 0 mm
13:51 -9.1 °C -14.3 °C 34635.4 hPa West 26.9 km/h 26.9 km/h 53 % 0 mm
13:53 -9.1 °C -14.4 °C 34635.4 hPa West 26.9 km/h 26.9 km/h 53 % 0 mm
13:58 -9.2 °C -14.5 °C 34635.4 hPa NW 17.9 km/h 17.9 km/h 53 % 0 mm
14:04 -9.1 °C -14.3 °C 34635.4 hPa West 15.6 km/h 15.6 km/h 53 % 0 mm
14:08 -9.1 °C -14.3 °C 34601.5 hPa ENE 20.9 km/h 20.9 km/h 53 % 0 mm
14:09 -9.1 °C -14.3 °C 34601.5 hPa NW 11.9 km/h 11.9 km/h 53 % 0 mm
14:15 -9.1 °C -14.3 °C 34601.5 hPa NW 26.9 km/h 26.9 km/h 53 % 0 mm
14:17 -9 °C -14.3 °C 34601.5 hPa West 16.6 km/h 16.6 km/h 53 % 0 mm
14:20 -9.1 °C -14.3 °C 34601.5 hPa NNE 15 km/h 15 km/h 53 % 0 mm
14:25 -9 °C -14.3 °C 34635.4 hPa WNW 17.9 km/h 17.9 km/h 53 % 0 mm
14:30 -9 °C -14.3 °C 34635.4 hPa WSW 20.9 km/h 20.9 km/h 53 % 0 mm
14:31 -9.1 °C -14.3 °C 34635.4 hPa WSW 20.9 km/h 20.9 km/h 53 % 0 mm
14:36 -9.1 °C -14.3 °C 34635.4 hPa WNW 23.8 km/h 23.8 km/h 53 % 0 mm
14:37 -9.1 °C -14.3 °C 34635.4 hPa SW 15 km/h 15 km/h 53 % 0 mm
14:44 -8.9 °C -14.2 °C 34635.4 hPa West 9 km/h 9 km/h 53 % 0 mm
14:49 -9 °C -14.3 °C 34635.4 hPa WNW 26.9 km/h 26.9 km/h 53 % 0 mm
14:54 -8.9 °C -14.2 °C 34635.4 hPa WSW 17.9 km/h 17.9 km/h 53 % 0 mm
14:56 -8.9 °C -14.2 °C 34635.4 hPa West 11.9 km/h 11.9 km/h 53 % 0 mm
15:01 -8.7 °C -14.1 °C 34635.4 hPa WSW 11.9 km/h 11.9 km/h 53 % 0 mm
15:02 -8.7 °C -14.1 °C 34635.4 hPa WSW 11.9 km/h 11.9 km/h 53 % 0 mm
15:03 -8.7 °C -14 °C 34635.4 hPa NW 11.9 km/h 11.9 km/h 53 % 0 mm
15:07 -8.6 °C -13.9 °C 34635.4 hPa West 15 km/h 15 km/h 53 % 0 mm
15:12 -8.6 °C -13.9 °C 34635.4 hPa SW 9.3 km/h 9.3 km/h 53 % 0 mm
15:13 -8.6 °C -13.9 °C 34635.4 hPa SSE 9.3 km/h 9.3 km/h 53 % 0 mm
15:18 -8.6 °C -13.9 °C 34635.4 hPa WNW 11.9 km/h 11.9 km/h 53 % 0 mm
15:19 -8.6 °C -13.9 °C 34635.4 hPa WNW 15 km/h 15 km/h 53 % 0 mm
15:21 -8.6 °C -13.9 °C 34635.4 hPa South 32.8 km/h 32.8 km/h 53 % 0 mm
15:24 -8.7 °C -14.2 °C 34635.4 hPa West 23.8 km/h 23.8 km/h 52 % 0 mm
15:27 -8.8 °C -14.3 °C 34635.4 hPa West 15 km/h 15 km/h 52 % 0 mm
15:31 -8.8 °C -14.3 °C 34635.4 hPa West 17.9 km/h 17.9 km/h 52 % 0 mm
15:35 -8.8 °C -14.3 °C 34635.4 hPa West 15 km/h 15 km/h 52 % 0 mm
15:36 -8.8 °C -14.3 °C 34635.4 hPa WSW 23.8 km/h 23.8 km/h 52 % 0 mm
15:44 -8.9 °C -14.3 °C 34635.4 hPa SW 17.9 km/h 17.9 km/h 52 % 0 mm
15:49 -8.8 °C -14.2 °C 34635.4 hPa West 20.9 km/h 20.9 km/h 53 % 0 mm
15:50 -8.8 °C -14.2 °C 34635.4 hPa WSW 18.2 km/h 25.9 km/h 53 % 0 mm
15:55 -8.7 °C -14.1 °C 34635.4 hPa North 9 km/h 9 km/h 53 % 0 mm
15:57 -8.7 °C -14.1 °C 34635.4 hPa WSW 10.3 km/h 10.3 km/h 53 % 0 mm
16:02 -8.6 °C -13.9 °C 34635.4 hPa SW 11.9 km/h 11.9 km/h 53 % 0 mm
16:05 -8.6 °C -13.9 °C 34635.4 hPa SSW 15.6 km/h 15.6 km/h 53 % 0 mm
16:08 -8.6 °C -13.9 °C 34635.4 hPa West 9.8 km/h 9.8 km/h 53 % 0 mm
16:10 -8.6 °C -13.9 °C 34635.4 hPa West 10.3 km/h 10.3 km/h 53 % 0 mm
16:14 -8.8 °C -14.1 °C 34635.4 hPa WNW 15.3 km/h 15.3 km/h 53 % 0 mm
16:16 -8.8 °C -14.2 °C 34635.4 hPa SW 17.9 km/h 17.9 km/h 53 % 0 mm
16:20 -8.8 °C -14.1 °C 34635.4 hPa WNW 11.9 km/h 11.9 km/h 53 % 0 mm
16:25 -8.7 °C -14.1 °C 34635.4 hPa WNW 20.9 km/h 20.9 km/h 53 % 0 mm
16:28 -8.7 °C -14.1 °C 34635.4 hPa SW 19.2 km/h 19.2 km/h 53 % 0 mm
16:33 -8.7 °C -14.1 °C 34635.4 hPa WSW 20.9 km/h 20.9 km/h 53 % 0 mm
16:39 -8.7 °C -14 °C 34635.4 hPa South 6.8 km/h 6.8 km/h 53 % 0 mm
16:44 -8.8 °C -14.1 °C 34635.4 hPa West 17.9 km/h 17.9 km/h 53 % 0 mm
16:47 -8.8 °C -14.1 °C 34635.4 hPa WSW 11.9 km/h 11.9 km/h 53 % 0 mm
16:52 -8.8 °C -14.2 °C 34635.4 hPa West 11.9 km/h 11.9 km/h 53 % 0 mm
16:53 -8.8 °C -14.2 °C 34635.4 hPa SW 11.1 km/h 11.1 km/h 53 % 0 mm
16:58 -8.9 °C -14.2 °C 34635.4 hPa WSW 15 km/h 15 km/h 53 % 0 mm
17:02 -8.9 °C -14.3 °C 34635.4 hPa West 6 km/h 7.6 km/h 53 % 0 mm
17:04 -9 °C -14.3 °C 34635.4 hPa WSW 8 km/h 8 km/h 53 % 0 mm
17:09 -9.1 °C -14.3 °C 34635.4 hPa WSW 9 km/h 9 km/h 54 % 0 mm
17:10 -9.2 °C -14.3 °C 34635.4 hPa West 9 km/h 9 km/h 54 % 0 mm
17:11 -9.2 °C -14.3 °C 34635.4 hPa SW 8 km/h 8 km/h 54 % 0 mm
17:15 -9.2 °C -14.4 °C 34635.4 hPa WNW 11.9 km/h 11.9 km/h 54 % 0 mm
17:18 -9.3 °C -14.4 °C 34635.4 hPa WSW 9 km/h 9 km/h 54 % 0 mm
17:22 -9.3 °C -14.5 °C 34635.4 hPa West 15 km/h 15 km/h 54 % 0 mm
17:26 -9.4 °C -14.6 °C 34635.4 hPa WSW 9 km/h 9 km/h 54 % 0 mm
17:30 -9.4 °C -14.6 °C 34635.4 hPa West 6 km/h 6 km/h 54 % 0 mm
17:34 -9.5 °C -14.5 °C 34635.4 hPa WNW 6 km/h 6 km/h 55 % 0 mm
17:39 -9.6 °C -14.6 °C 34635.4 hPa WNW 9 km/h 9 km/h 55 % 0 mm
17:44 -9.6 °C -14.6 °C 34635.4 hPa West 9 km/h 9 km/h 55 % 0 mm
17:50 -9.7 °C -14.6 °C 34635.4 hPa West 6 km/h 6 km/h 55 % 0 mm
17:51 -9.7 °C -14.6 °C 34635.4 hPa West 10.3 km/h 10.3 km/h 55 % 0 mm
17:55 -9.7 °C -14.5 °C 34635.4 hPa SSW 6 km/h 6 km/h 56 % 0 mm
17:58 -9.7 °C -14.6 °C 34635.4 hPa SW 6 km/h 6 km/h 56 % 0 mm
18:02 -9.7 °C -14.6 °C 34635.4 hPa WSW 9 km/h 9 km/h 56 % 0 mm
18:07 -9.8 °C -14.7 °C 34635.4 hPa SSW 6 km/h 6 km/h 56 % 0 mm
18:13 -9.8 °C -14.5 °C 34635.4 hPa South 6.3 km/h 6.3 km/h 57 % 0 mm
18:18 -9.9 °C -14.6 °C 34635.4 hPa SW 6 km/h 6 km/h 57 % 0 mm
18:22 -9.9 °C -14.6 °C 34635.4 hPa WNW 11.9 km/h 11.9 km/h 57 % 0 mm
18:27 -9.8 °C -14.5 °C 34635.4 hPa West 9.8 km/h 9.8 km/h 57 % 0 mm
18:28 -9.8 °C -14.5 °C 34635.4 hPa WSW 11.9 km/h 11.9 km/h 57 % 0 mm
18:32 -9.8 °C -14.5 °C 34635.4 hPa WSW 9 km/h 9 km/h 57 % 0 mm
18:36 -9.9 °C -14.6 °C 34635.4 hPa SW 7.6 km/h 7.6 km/h 57 % 0 mm
18:40 -9.9 °C -14.6 °C 34635.4 hPa WSW 11.9 km/h 11.9 km/h 57 % 0 mm
18:42 -9.9 °C -14.6 °C 34635.4 hPa SW 6.8 km/h 6.8 km/h 57 % 0 mm
18:45 -9.9 °C -14.6 °C 34635.4 hPa WSW 11.9 km/h 11.9 km/h 57 % 0 mm
18:49 -10 °C -14.7 °C 34635.4 hPa West 11.9 km/h 11.9 km/h 57 % 0 mm
18:50 -10.7 °C -14.1 °C 34635.4 hPa WSW 2.6 km/h 5.1 km/h 67 % 0 mm
18:51 -10.1 °C -14.7 °C 34635.4 hPa WSW 15 km/h 15 km/h 57 % 0 mm
18:57 -10.1 °C -14.6 °C 34635.4 hPa WSW 9 km/h 9 km/h 58 % 0 mm
19:00 -10.7 °C -14 °C 34635.4 hPa West 5.1 km/h 5.1 km/h 67 % 0 mm
19:01 -10.1 °C -14.6 °C 34635.4 hPa WSW 11.9 km/h 11.9 km/h 58 % 0 mm
19:03 -10.1 °C -14.6 °C 34635.4 hPa WNW 11.9 km/h 11.9 km/h 58 % 0 mm
19:08 -10.1 °C -14.4 °C 34601.5 hPa WSW 15 km/h 15 km/h 59 % 0 mm
19:10 -10.7 °C -13.8 °C 34635.4 hPa West 2.6 km/h 7.7 km/h 68 % 0 mm
19:13 -10 °C -14.4 °C 34601.5 hPa West 6.3 km/h 6.3 km/h 59 % 0 mm
19:18 -10.1 °C -14.4 °C 34601.5 hPa West 11.9 km/h 11.9 km/h 59 % 0 mm
19:19 -10.1 °C -14.4 °C 34601.5 hPa West 9 km/h 9 km/h 59 % 0 mm
19:20 -10.7 °C -14 °C 34635.4 hPa Calm   5.1 km/h 67 % 0 mm
19:24 -10.1 °C -14.5 °C 34635.4 hPa WSW 11.9 km/h 11.9 km/h 59 % 0 mm
19:25 -10.1 °C -14.5 °C 34635.4 hPa WSW 9 km/h 9 km/h 59 % 0 mm
19:30 -10.1 °C -14.4 °C 34635.4 hPa West 5.1 km/h 12.9 km/h 59 % 0 mm
19:31 -10.1 °C -14.3 °C 34635.4 hPa West 9.3 km/h 9.3 km/h 60 % 0 mm
19:35 -10.1 °C -14.3 °C 34635.4 hPa WSW 9 km/h 9 km/h 60 % 0 mm
19:38 -10.1 °C -14.3 °C 34601.5 hPa WSW 9.3 km/h 9.3 km/h 60 % 0 mm
19:42 -10 °C -14.3 °C 34601.5 hPa West 17.9 km/h 17.9 km/h 60 % 0 mm
19:47 -10 °C -14.3 °C 34601.5 hPa West 9 km/h 9.3 km/h 60 % 0 mm
19:50 -10.9 °C -14.1 °C 34635.4 hPa Calm   2.6 km/h 68 % 0 mm
19:51 -10 °C -14.3 °C 34601.5 hPa West 17.9 km/h 17.9 km/h 60 % 0 mm
19:53 -10.1 °C -14.3 °C 34601.5 hPa West 20.9 km/h 20.9 km/h 60 % 0 mm
19:57 -10 °C -14.1 °C 34601.5 hPa WNW 22.5 km/h 22.5 km/h 61 % 0 mm
20:00 -10.9 °C -14.1 °C 34635.4 hPa North 2.6 km/h 5.1 km/h 68 % 0 mm
20:01 -9.9 °C -14.1 °C 34601.5 hPa WSW 20.9 km/h 20.9 km/h 61 % 0 mm
20:03 -9.9 °C -14.1 °C 34601.5 hPa WSW 15.6 km/h 15.6 km/h 61 % 0 mm
20:08 -10 °C -14.1 °C 34601.5 hPa WSW 15 km/h 15 km/h 61 % 0 mm
20:10 -11 °C -14.2 °C 34635.4 hPa NE 2.6 km/h 5.1 km/h 68 % 0 mm
20:13 -10.1 °C -14.2 °C 34601.5 hPa West 12.7 km/h 12.7 km/h 61 % 0 mm
20:17 -10.1 °C -14.2 °C 34601.5 hPa West 11.9 km/h 11.9 km/h 61 % 0 mm
20:23 -10.1 °C -14.2 °C 34601.5 hPa West 11.9 km/h 11.9 km/h 61 % 0 mm
20:24 -10.1 °C -14.2 °C 34601.5 hPa WSW 9 km/h 9 km/h 61 % 0 mm
20:26 -10.1 °C -14.2 °C 34601.5 hPa West 12.7 km/h 12.7 km/h 61 % 0 mm
20:30 -11.4 °C -14.5 °C 34635.4 hPa NE 5.1 km/h 7.7 km/h 69 % 0 mm
20:31 -10.1 °C -14.1 °C 34601.5 hPa WNW 20.9 km/h 20.9 km/h 62 % 0 mm
20:32 -10.1 °C -14.1 °C 34601.5 hPa WSW 11.9 km/h 11.9 km/h 62 % 0 mm
20:36 -10.1 °C -14.1 °C 34601.5 hPa WSW 6 km/h 6 km/h 62 % 0 mm
20:39 -10.2 °C -14.1 °C 34601.5 hPa West 9 km/h 9 km/h 62 % 0 mm
20:40 -11.6 °C -14.6 °C 34635.4 hPa Calm   5.1 km/h 69 % 0 mm
20:41 -10.2 °C -14.1 °C 34601.5 hPa WSW 11.9 km/h 11.9 km/h 62 % 0 mm
20:47 -10.2 °C -14.1 °C 34601.5 hPa SSW 7.6 km/h 7.6 km/h 62 % 0 mm
20:50 -11.7 °C -14.7 °C 34635.4 hPa Calm   5.1 km/h 69 % 0 mm
20:52 -10.2 °C -14.1 °C 34635.4 hPa West 9 km/h 9 km/h 62 % 0 mm
20:53 -10.2 °C -14.1 °C 34635.4 hPa WSW 9 km/h 9 km/h 62 % 0 mm
20:54 -10.2 °C -14.1 °C 34635.4 hPa WNW 9 km/h 9 km/h 62 % 0 mm
20:59 -10.2 °C -14.1 °C 34635.4 hPa WSW 11.9 km/h 11.9 km/h 62 % 0 mm
21:00 -11.6 °C -14.5 °C 34635.4 hPa ENE 2.6 km/h 5.1 km/h 70 % 0 mm
21:04 -10.2 °C -14.2 °C 34635.4 hPa West 9.3 km/h 9.3 km/h 62 % 0 mm
21:05 -10.2 °C -14.1 °C 34635.4 hPa West 15 km/h 15 km/h 62 % 0 mm
21:07 -10.2 °C -14.1 °C 34601.5 hPa WNW 11.9 km/h 11.9 km/h 62 % 0 mm
21:11 -10.2 °C -14.2 °C 34601.5 hPa WSW 11.9 km/h 11.9 km/h 62 % 0 mm
21:13 -10.2 °C -14.2 °C 34601.5 hPa SSW 9.8 km/h 9.8 km/h 62 % 0 mm
21:18 -10.3 °C -14.3 °C 34601.5 hPa WSW 7.6 km/h 7.6 km/h 62 % 0 mm
21:20 -10.3 °C -14.3 °C 34601.5 hPa NNE 17.9 km/h 17.9 km/h 62 % 0 mm
21:26 -10.3 °C -14.1 °C 34601.5 hPa ENE 3.1 km/h   63 % 0 mm
21:30 -11.3 °C -14.1 °C 34669.3 hPa ESE 5.1 km/h 7.7 km/h 71 % 0 mm
21:31 -10.3 °C -14.1 °C 34601.5 hPa WNW 15 km/h 15 km/h 63 % 0 mm
21:36 -10.3 °C -14.2 °C 34601.5 hPa WSW 6.8 km/h 6.8 km/h 63 % 0 mm
21:37 -10.3 °C -14.2 °C 34601.5 hPa NNW 6 km/h 6 km/h 63 % 0 mm
21:40 -11.4 °C -14.4 °C 34669.3 hPa ESE 2.6 km/h 10.3 km/h 70 % 0 mm
21:42 -10.4 °C -14.2 °C 34601.5 hPa WSW 6 km/h 6 km/h 63 % 0 mm
21:44 -10.4 °C -14.2 °C 34601.5 hPa WSW 6 km/h 6 km/h 63 % 0 mm
21:46 -10.4 °C -14.3 °C 34601.5 hPa ENE 6 km/h 6 km/h 63 % 0 mm
21:50 -11.4 °C -14.3 °C 34635.4 hPa NE 2.6 km/h 7.7 km/h 70 % 0 mm
21:51 -10.5 °C -14.3 °C 34635.4 hPa SSE 9 km/h   63 % 0 mm
21:52 -10.5 °C -14.3 °C 34635.4 hPa SSE 9 km/h   63 % 0 mm
21:53 -10.5 °C -14.3 °C 34635.4 hPa West 6.3 km/h 6.3 km/h 63 % 0 mm
21:58 -10.5 °C -14.3 °C 34635.4 hPa SW 3.1 km/h 3.1 km/h 63 % 0 mm
21:59 -10.5 °C -14.2 °C 34635.4 hPa WSW 7.6 km/h   64 % 0 mm
22:00 -11.2 °C -14 °C 34635.4 hPa NNE 5.1 km/h 10.3 km/h 71 % 0 mm
22:04 -10.4 °C -14.3 °C 34635.4 hPa WNW 9.8 km/h 9.8 km/h 63 % 0 mm
22:05 -10.4 °C -14.3 °C 34635.4 hPa West 9 km/h 9 km/h 63 % 0 mm
22:10 -10.4 °C -14.1 °C 34635.4 hPa SW 6 km/h 6 km/h 64 % 0 mm
22:11 -10.5 °C -14.2 °C 34635.4 hPa WNW 6 km/h 6 km/h 64 % 0 mm
22:16 -10.5 °C -14.2 °C 34635.4 hPa WSW 9 km/h 9 km/h 64 % 0 mm
22:19 -10.5 °C -14.2 °C 34635.4 hPa Calm     64 % 0 mm
22:24 -10.6 °C -14.3 °C 34635.4 hPa WSW 6 km/h 6 km/h 64 % 0 mm
22:25 -10.6 °C -14.3 °C 34635.4 hPa WSW 15 km/h 15 km/h 64 % 0 mm
22:30 -10.6 °C -14.3 °C 34635.4 hPa WSW 3.1 km/h 3.1 km/h 64 % 0 mm
22:31 -10.6 °C -14.3 °C 34635.4 hPa WSW 3.1 km/h   64 % 0 mm
22:36 -10.7 °C -14.3 °C 34635.4 hPa SW 9 km/h 9 km/h 64 % 0 mm
22:37 -10.7 °C -14.3 °C 34635.4 hPa WSW 6 km/h 6 km/h 64 % 0 mm
22:42 -10.7 °C -14.4 °C 34635.4 hPa Calm     64 % 0 mm
22:46 -10.8 °C -14.5 °C 34635.4 hPa NNW 3.1 km/h   64 % 0 mm
22:50 -10.8 °C -13.8 °C 34635.4 hPa West 5.1 km/h 7.7 km/h 69 % 0 mm
22:51 -10.8 °C -14.3 °C 34635.4 hPa West 3.1 km/h 3.7 km/h 65 % 0 mm
22:54 -10.8 °C -14.5 °C 34635.4 hPa West 6 km/h 6 km/h 64 % 0 mm
22:57 -10.8 °C -14.5 °C 34635.4 hPa West 7.6 km/h 7.6 km/h 64 % 0 mm
23:00 -10.8 °C -13.8 °C 34635.4 hPa WSW 5.1 km/h 10.3 km/h 69 % 0 mm
23:02 -10.8 °C -14.4 °C 34635.4 hPa NW 6 km/h 6 km/h 65 % 0 mm
23:03 -10.8 °C -14.4 °C 34635.4 hPa NW 3.1 km/h 3.7 km/h 65 % 0 mm
23:07 -10.8 °C -14.4 °C 34635.4 hPa North 6 km/h 6 km/h 65 % 0 mm
23:09 -10.8 °C -14.4 °C 34635.4 hPa West 4.2 km/h 4.2 km/h 65 % 0 mm
23:12 -10.8 °C -14.4 °C 34635.4 hPa WSW 3.7 km/h 3.7 km/h 65 % 0 mm
23:16 -10.8 °C -14.4 °C 34635.4 hPa WSW 6 km/h 6 km/h 65 % 0 mm
23:17 -10.8 °C -14.4 °C 34635.4 hPa WSW 6 km/h 6 km/h 65 % 0 mm
23:20 -10.8 °C -13.9 °C 34635.4 hPa West 5.1 km/h 5.1 km/h 69 % 0 mm
23:22 -10.9 °C -14.3 °C 34635.4 hPa Calm     66 % 0 mm
23:27 -10.9 °C -14.3 °C 34635.4 hPa West 3.1 km/h 3.1 km/h 66 % 0 mm
23:28 -10.9 °C -14.3 °C 34635.4 hPa West 3.1 km/h   66 % 0 mm
23:30 -10.8 °C -13.9 °C 34635.4 hPa WSW 5.1 km/h 7.7 km/h 69 % 0 mm
23:33 -11 °C -14.4 °C 34635.4 hPa Calm     66 % 0 mm
23:36 -11 °C -14.4 °C 34635.4 hPa WNW 6 km/h 6 km/h 66 % 0 mm
23:40 -11 °C -14.4 °C 34635.4 hPa WSW 6 km/h 6 km/h 66 % 0 mm
23:41 -11 °C -14.4 °C 34635.4 hPa WSW 6 km/h 6 km/h 66 % 0 mm
23:46 -11.1 °C -14.5 °C 34635.4 hPa West 6 km/h 6 km/h 66 % 0 mm
23:49 -11.1 °C -14.5 °C 34635.4 hPa NNW 6.3 km/h   66 % 0 mm
23:50 -10.9 °C -14 °C 34635.4 hPa WNW 5.1 km/h 7.7 km/h 69 % 0 mm
23:51 -11 °C -14.4 °C 34635.4 hPa West 6 km/h 6 km/h 66 % 0 mm
23:56 -11 °C -14.4 °C 34635.4 hPa South 11.9 km/h 11.9 km/h 66 % 0 mm
23:59 -10.9 °C -14.3 °C 34635.4 hPa WNW 9 km/h 9 km/h 67 % 0 mm
Meteo Sesrovires
Elogis d' Weather Underground - 1.75 mb

Guio original per  Jim McMurry - jmcmurry@mwt.net Adaptat per a la plantilla per  Wim van der Kuil - Leuven-Template.eu

Trobareu la nostra informacio del temps tambe a:

Weather Underground

AWEKAS